Domov
logo

Sponzorovaný hosting od WebSupport.sk
Vlastný virtuálny server od 5,65 € od WebSupport.sk

Aktuálne počasie

LZIB - letisko Bratislava

Hodnoty namerané: 21.04.2018, 09:00 SELČ
Aktuálny čas: 21.04.2018, 09:22 SELČ
Aktualizované: pred 22 min.
Teplota: 15°C
Rosný bod: 8°C
Vietor: 13 km/h 50° (SV)
Dohľadnosť: viac ako 10 km
Stav počasia: bez zrážok
Oblačnosť: jasno
Vlhkosť vzduchu: 63 %
Tlak vzduchu: 1021 hPa
METAR: LZIB 210700Z 05007KT CAVOK 15/08 Q1021 NOSIG

LZKZ - letisko Košice

Hodnoty namerané: 21.04.2018, 09:17 SELČ
Aktuálny čas: 21.04.2018, 09:22 SELČ
Aktualizované: pred 5 min.
Teplota: 15°C
Rosný bod: 7°C
Vietor: 13 km/h 180° (J)
Dohľadnosť: viac ako 10 km
Stav počasia: bez zrážok
Oblačnosť: jasno
Vlhkosť vzduchu: 59 %
Tlak vzduchu: 1021 hPa
METAR: LZKZ 210717Z 18007KT CAVOK 15/07 Q1021

LZPP - letisko Piešťany

Hodnoty namerané: 21.04.2018, 09:00 SELČ
Aktuálny čas: 21.04.2018, 09:22 SELČ
Aktualizované: pred 22 min.
Teplota: 16°C
Rosný bod: 7°C
Vietor: premenlivý 2 km/h
Dohľadnosť: viac ako 10 km
Stav počasia: bez zrážok
Oblačnosť: jasno
Vlhkosť vzduchu: 55 %
Tlak vzduchu: 1022 hPa
METAR: LZPP 210700Z VRB01KT CAVOK 16/07 Q1022

LZTT - letisko Poprad Tatry

Hodnoty namerané: 21.04.2018, 09:00 SELČ
Aktuálny čas: 21.04.2018, 09:22 SELČ
Aktualizované: pred 22 min.
Teplota: 16°C
Rosný bod: 2°C
Vietor: 17 km/h 240° (ZJZ) kolíše v rozsahu 170°-280° (J-Z)
Dohľadnosť: viac ako 10 km
Stav počasia: bez zrážok
Oblačnosť: jasno
Vlhkosť vzduchu: 39 %
Tlak vzduchu: 1021 hPa
METAR: LZTT 210700Z 24009KT 170V280 CAVOK 16/02 Q1021 NOSIG

LZSL - letisko Sliač

Hodnoty namerané: 21.04.2018, 09:00 SELČ
Aktuálny čas: 21.04.2018, 09:22 SELČ
Aktualizované: pred 22 min.
Teplota: 13°C
Rosný bod: 5°C
Vietor: bezvetrie
Dohľadnosť: viac ako 10 km
Stav počasia: bez zrážok
Oblačnosť: jasno
Vlhkosť vzduchu: 59 %
Tlak vzduchu: 1022 hPa
METAR: LZSL 210700Z 00000KT CAVOK 13/05 Q1022

LZZI - letisko Žilina

Hodnoty namerané: 21.04.2018, 09:00 SELČ
Aktuálny čas: 21.04.2018, 09:22 SELČ
Aktualizované: pred 22 min.
Teplota: 13°C
Rosný bod: 5°C
Vietor: premenlivý 4 km/h
Dohľadnosť: viac ako 10 km
Stav počasia: bez zrážok
Oblačnosť: jasno
Vlhkosť vzduchu: 59 %
Tlak vzduchu: 1022 hPa
METAR: LZZI 210700Z VRB02KT CAVOK 13/05 Q1022

POZNÁMKY:

SEČ - stredoeurópsky čas (UTC+1hod.)

SELČ - stredoeurópsky letný čas (UTC+2hod.)

UTC - univerzálny svetový čas, GMT, ZULU

METAR - sú pravidelné kódované letecké meteorologické správy. Tie zostavujú a zverejňujú meteorologické stanice letísk v polhodinových/hodinových intervaloch. Na tejto stránke správy METAR zo slovenských letísk nájdete už v dekódovanej podobe.

hore